Time;durP1;ratioP1;P1;durP2;ratioP2;P2;SDS_P1;SDS_P2;PMS_P1;PMS_P2;Temp;Humidity;BMP_temperature;BMP_pressure;BME280_temperature;BME280_humidity;BME280_pressure;Samples;Min_cycle;Max_cycle;Signal;HPM_P1;HPM_P2
2021/06/29 00:00:12;;;;;;;0.00;0.00;;;20.00;79.00;19.40;101226.00;;;;5024612;28;20635;-74
2021/06/29 00:02:38;;;;;;;0.00;0.00;;;20.00;79.30;19.40;101216.00;;;;5026465;28;20041;-72
2021/06/29 00:05:05;;;;;;;0.00;0.00;;;20.00;78.50;19.40;101212.00;;;;5026342;28;20048;-72
2021/06/29 00:07:30;;;;;;;0.00;0.00;;;20.00;78.30;19.40;101206.00;;;;5024916;28;20267;-72
2021/06/29 00:09:57;;;;;;;0.00;0.00;;;20.00;78.30;19.40;101210.00;;;;5008579;28;20041;-72
2021/06/29 00:12:23;;;;;;;0.00;0.00;;;20.00;78.90;19.40;101201.00;;;;5042428;28;20037;-72
2021/06/29 00:14:49;;;;;;;0.00;0.00;;;20.00;79.00;19.40;101202.00;;;;5025500;28;20052;-72
2021/06/29 00:17:15;;;;;;;0.00;0.00;;;20.00;79.00;19.40;101201.00;;;;5026313;28;20156;-71
2021/06/29 00:19:40;;;;;;;0.00;0.00;;;20.00;79.30;19.30;101199.00;;;;5025300;28;20069;-72
2021/06/29 00:22:07;;;;;;;0.10;0.10;;;20.00;79.00;19.30;101204.00;;;;5025442;28;20052;-72
2021/06/29 00:24:33;;;;;;;0.00;0.00;;;19.90;79.00;19.30;101196.00;;;;5024878;28;20617;-72
2021/06/29 00:26:59;;;;;;;0.00;0.00;;;19.90;79.30;19.30;101195.00;;;;5028553;28;20416;-72
2021/06/29 00:29:25;;;;;;;0.00;0.00;;;20.00;79.30;19.30;101191.00;;;;5041970;28;20034;-72
2021/06/29 00:31:51;;;;;;;0.00;0.00;;;19.90;79.40;19.30;101190.00;;;;5022460;28;20575;-72
2021/06/29 00:34:17;;;;;;;0.00;0.00;;;19.90;79.20;19.30;101192.00;;;;5026048;28;21396;-72
2021/06/29 00:36:42;;;;;;;0.00;0.00;;;19.90;79.40;19.30;101186.00;;;;5024794;28;20050;-72
2021/06/29 00:39:08;;;;;;;0.00;0.00;;;19.90;79.60;19.30;101186.00;;;;5025357;28;20057;-71
2021/06/29 00:41:34;;;;;;;0.00;0.00;;;19.90;78.90;19.20;101196.00;;;;5023478;28;20129;-71
2021/06/29 00:44:00;;;;;;;0.00;0.00;;;19.90;79.90;19.20;101195.00;;;;5020539;28;20038;-72
2021/06/29 00:46:26;;;;;;;0.00;0.00;;;19.90;79.40;19.20;101191.00;;;;5023852;28;20438;-73
2021/06/29 00:48:52;;;;;;;0.00;0.00;;;19.90;79.80;19.20;101190.00;;;;5026974;28;20038;-72
2021/06/29 00:51:20;;;;;;;0.00;0.00;;;19.80;79.80;19.20;101188.00;;;;5025629;28;20276;-72
2021/06/29 00:53:47;;;;;;;0.00;0.00;;;19.90;79.50;19.20;101182.00;;;;5023003;28;20496;-73
2021/06/29 00:56:14;;;;;;;0.00;0.00;;;19.80;79.50;19.20;101190.00;;;;5027130;28;20045;-73
2021/06/29 00:58:48;;;;;;;0.00;0.00;;;19.80;79.70;19.10;101183.00;;;;5022933;28;20757;-73
2021/06/29 01:01:15;;;;;;;0.00;0.00;;;19.80;79.90;19.20;101185.00;;;;5026176;28;20080;-73
2021/06/29 01:03:41;;;;;;;;;;;19.80;79.80;19.10;101183.00;;;;5026679;28;20041;-73
2021/06/29 01:06:10;;;;;;;0.00;0.00;;;19.80;81.00;19.10;101185.00;;;;5023805;28;20380;-73
2021/06/29 01:08:36;;;;;;;0.00;0.00;;;19.80;79.40;19.10;101178.00;;;;5024494;28;20184;-73
2021/06/29 01:11:03;;;;;;;0.17;0.17;;;19.80;80.10;19.10;101176.00;;;;5025099;28;20137;-73
2021/06/29 01:13:34;;;;;;;0.00;0.00;;;19.70;79.10;19.10;101172.00;;;;5024739;28;20106;-72
2021/06/29 01:16:02;;;;;;;0.00;0.00;;;19.70;79.40;19.10;101173.00;;;;5017521;28;20617;-71
2021/06/29 01:18:28;;;;;;;0.00;0.00;;;19.70;80.80;19.10;101169.00;;;;5024021;28;20048;-71
2021/06/29 01:20:55;;;;;;;0.00;0.00;;;19.70;80.20;19.10;101179.00;;;;5023522;28;20274;-72
2021/06/29 01:23:24;;;;;;;0.10;0.10;;;19.80;81.10;19.10;101184.00;;;;5026317;28;20072;-72
2021/06/29 01:26:21;;;;;;;0.00;0.00;;;19.70;80.90;19.20;101191.00;;;;5023910;28;20542;-72
2021/06/29 01:28:55;;;;;;;0.00;0.00;;;19.80;81.10;19.20;101184.00;;;;5023809;28;20054;-73
2021/06/29 01:31:22;;;;;;;0.00;0.00;;;19.80;80.90;19.30;101179.00;;;;5021323;28;20208;-73
2021/06/29 01:33:49;;;;;;;;;;;19.80;81.00;19.30;101171.00;;;;5022738;28;20673;-71
2021/06/29 01:36:23;;;;;;;0.22;0.08;;;19.90;81.90;19.30;101188.00;;;;5025453;28;20375;-72
2021/06/29 01:38:51;;;;;;;0.00;0.00;;;19.90;81.00;19.40;101183.00;;;;5023363;28;20048;-72
2021/06/29 01:41:24;;;;;;;0.00;0.00;;;20.00;80.70;19.40;101182.00;;;;5021241;28;20056;-72
2021/06/29 01:46:17;;;;;;;0.00;0.00;;;20.00;80.50;19.30;101164.00;;;;5020048;28;20132;-73
2021/06/29 01:48:48;;;;;;;0.00;0.00;;;20.00;80.90;19.30;101169.00;;;;5020777;28;20045;-74
2021/06/29 01:51:15;;;;;;;0.00;0.00;;;20.00;81.10;19.30;101167.00;;;;5022515;28;20049;-74
2021/06/29 01:53:42;;;;;;;0.00;0.00;;;19.90;81.60;19.30;101164.00;;;;5026314;28;21169;-74
2021/06/29 01:56:14;;;;;;;0.00;0.00;;;19.90;80.80;19.30;101163.00;;;;5023060;28;20112;-75
2021/06/29 01:59:02;;;;;;;0.00;0.00;;;19.90;80.80;19.30;101163.00;;;;5040315;28;20511;-75
2021/06/29 02:01:28;;;;;;;0.00;0.00;;;19.90;81.30;19.30;101151.00;;;;5020515;28;20045;-74
2021/06/29 02:03:54;;;;;;;0.00;0.00;;;20.00;81.50;19.30;101147.00;;;;5021929;28;20045;-74
2021/06/29 02:06:20;;;;;;;0.00;0.00;;;19.90;81.20;19.30;101136.00;;;;5023253;28;20033;-75
2021/06/29 02:08:46;;;;;;;0.00;0.00;;;19.90;80.90;19.20;101134.00;;;;5019338;28;20534;-75
2021/06/29 02:11:12;;;;;;;0.00;0.00;;;19.90;80.70;19.20;101132.00;;;;5021277;28;20041;-74
2021/06/29 02:13:39;;;;;;;0.00;0.00;;;19.90;80.60;19.20;101125.00;;;;5041797;28;20048;-75
2021/06/29 02:16:06;;;;;;;0.10;0.10;;;19.80;80.50;19.10;101123.00;;;;5023347;28;20065;-74
2021/06/29 02:18:32;;;;;;;0.00;0.00;;;19.80;80.10;19.10;101119.00;;;;5024513;28;20306;-75
2021/06/29 02:20:58;;;;;;;0.00;0.00;;;19.80;81.20;19.10;101118.00;;;;5037754;28;20057;-74
2021/06/29 02:23:25;;;;;;;0.10;0.10;;;19.70;81.50;19.10;101118.00;;;;5022303;28;20095;-74
2021/06/29 02:25:51;;;;;;;0.00;0.00;;;19.70;81.60;19.10;101119.00;;;;5023318;28;20132;-74
2021/06/29 02:28:18;;;;;;;0.00;0.00;;;19.70;81.50;19.10;101117.00;;;;5027678;28;20037;-75
2021/06/29 02:30:45;;;;;;;0.00;0.00;;;19.70;82.10;19.10;101105.00;;;;5028101;28;20595;-75
2021/06/29 02:33:11;;;;;;;0.00;0.00;;;19.70;82.40;19.10;101107.00;;;;5041284;28;20045;-76
2021/06/29 02:35:37;;;;;;;0.00;0.00;;;19.70;81.20;19.10;101104.00;;;;5025284;28;20060;-75
2021/06/29 02:38:06;;;;;;;0.00;0.00;;;19.70;81.90;19.10;101130.00;;;;5027652;28;20484;-76
2021/06/29 02:40:33;;;;;;;0.00;0.00;;;19.70;82.50;19.20;101127.00;;;;5024389;28;20132;-75
2021/06/29 02:42:59;;;;;;;0.00;0.00;;;19.80;83.60;19.20;101126.00;;;;5023529;28;20041;-75
2021/06/29 02:45:26;;;;;;;0.00;0.00;;;19.80;82.50;19.20;101120.00;;;;5029232;28;20071;-74
2021/06/29 02:47:53;;;;;;;0.00;0.00;;;19.80;82.60;19.20;101120.00;;;;5025110;28;20044;-75
2021/06/29 02:50:19;;;;;;;0.00;0.00;;;19.80;82.70;19.20;101125.00;;;;5011411;28;20069;-75
2021/06/29 02:52:46;;;;;;;0.00;0.00;;;19.80;82.50;19.30;101120.00;;;;5027571;28;20053;-75
2021/06/29 02:55:15;;;;;;;0.00;0.00;;;19.90;82.70;19.30;101112.00;;;;5028917;28;20029;-75
2021/06/29 02:57:42;;;;;;;0.00;0.00;;;19.90;82.60;19.30;101112.00;;;;5038291;28;20197;-73
2021/06/29 03:00:16;;;;;;;0.00;0.00;;;19.90;82.40;19.30;101095.00;;;;5039141;28;20037;-75
2021/06/29 03:02:43;;;;;;;0.00;0.00;;;19.90;82.00;19.20;101093.00;;;;5038813;28;20045;-76
2021/06/29 03:05:09;;;;;;;0.03;0.03;;;19.90;81.80;19.20;101104.00;;;;5039011;28;20044;-75
2021/06/29 03:07:35;;;;;;;0.00;0.00;;;19.80;82.10;19.20;101104.00;;;;5038305;28;20053;-74
2021/06/29 03:10:04;;;;;;;0.00;0.00;;;19.80;81.90;19.10;101096.00;;;;5040321;28;20061;-74
2021/06/29 03:12:30;;;;;;;0.00;0.00;;;19.80;82.20;19.10;101102.00;;;;5023621;28;20038;-74
2021/06/29 03:14:58;;;;;;;0.00;0.00;;;19.80;82.40;19.10;101107.00;;;;5034400;28;20100;-75
2021/06/29 03:17:24;;;;;;;0.00;0.00;;;19.80;82.30;19.10;101114.00;;;;5032470;28;20061;-74
2021/06/29 03:19:51;;;;;;;0.10;0.10;;;19.80;82.40;19.10;101125.00;;;;5037533;28;20045;-74
2021/06/29 03:22:17;;;;;;;0.00;0.00;;;19.80;83.60;19.10;101118.00;;;;5032484;28;20044;-75
2021/06/29 03:24:43;;;;;;;0.00;0.00;;;19.80;82.20;19.20;101117.00;;;;5014756;28;20049;-75
2021/06/29 03:27:09;;;;;;;0.00;0.00;;;19.80;82.80;19.20;101120.00;;;;5028118;28;20292;-74
2021/06/29 03:29:36;;;;;;;0.00;0.00;;;19.80;82.90;19.20;101113.00;;;;5007996;28;20522;-74
2021/06/29 03:32:04;;;;;;;0.00;0.00;;;20.50;83.50;19.20;101123.00;;;;5028750;28;20133;-74
2021/06/29 03:34:29;;;;;;;0.00;0.00;;;19.80;82.10;19.20;101124.00;;;;5029189;28;20052;-75
2021/06/29 03:36:56;;;;;;;0.00;0.00;;;19.80;82.30;19.20;101121.00;;;;5032563;28;20053;-74
2021/06/29 03:39:23;;;;;;;0.00;0.00;;;19.80;82.70;19.20;101126.00;;;;5030248;28;20036;-74
2021/06/29 03:41:49;;;;;;;0.00;0.00;;;19.80;82.80;19.20;101124.00;;;;5045753;28;20049;-75
2021/06/29 03:44:15;;;;;;;0.05;0.05;;;19.80;82.70;19.20;101118.00;;;;5027203;28;20049;-74
2021/06/29 03:46:41;;;;;;;0.00;0.00;;;19.80;82.60;19.20;101122.00;;;;5030391;28;20049;-74
2021/06/29 03:49:07;;;;;;;0.00;0.00;;;19.80;82.80;19.20;101119.00;;;;5028053;28;20040;-76
2021/06/29 03:51:33;;;;;;;0.00;0.00;;;19.80;82.70;19.20;101117.00;;;;5032536;28;20571;-73
2021/06/29 03:53:59;;;;;;;0.00;0.00;;;19.80;82.40;19.20;101113.00;;;;5022118;28;20291;-74
2021/06/29 03:56:28;;;;;;;0.00;0.00;;;19.80;82.70;19.20;101108.00;;;;5038872;28;20091;-74
2021/06/29 03:58:58;;;;;;;0.00;0.00;;;19.90;82.70;19.30;101114.00;;;;5023162;28;20136;-74
2021/06/29 04:01:25;;;;;;;0.00;0.00;;;19.90;82.40;19.20;101118.00;;;;5018392;28;20061;-73
2021/06/29 04:03:55;;;;;;;0.00;0.00;;;19.90;82.50;19.30;101118.00;;;;5022321;28;20053;-73
2021/06/29 04:06:27;;;;;;;0.00;0.00;;;19.90;83.20;19.30;101124.00;;;;5019646;28;20043;-74
2021/06/29 04:08:55;;;;;;;0.00;0.00;;;19.90;82.80;19.30;101127.00;;;;5022396;28;20045;-73
2021/06/29 04:11:22;;;;;;;0.00;0.00;;;19.90;82.70;19.40;101120.00;;;;5023139;28;20520;-73
2021/06/29 04:13:49;;;;;;;0.00;0.00;;;20.00;82.70;19.40;101122.00;;;;5020504;28;20046;-74
2021/06/29 04:16:15;;;;;;;0.00;0.00;;;20.00;82.80;19.40;101120.00;;;;5018825;28;20107;-73
2021/06/29 04:18:42;;;;;;;0.00;0.00;;;20.00;82.90;19.50;101105.00;;;;5021839;28;20090;-74
2021/06/29 04:21:08;;;;;;;0.00;0.00;;;20.00;82.70;19.50;101113.00;;;;5021546;28;20033;-74
2021/06/29 04:23:35;;;;;;;0.00;0.00;;;20.10;82.80;19.50;101104.00;;;;5023453;28;20052;-74
2021/06/29 04:26:01;;;;;;;0.00;0.00;;;20.10;84.30;19.60;101108.00;;;;5022914;28;20399;-74
2021/06/29 04:28:28;;;;;;;0.00;0.00;;;20.10;83.00;19.60;101104.00;;;;5021069;28;20088;-74
2021/06/29 04:30:54;;;;;;;0.00;0.00;;;20.20;82.90;19.70;101104.00;;;;5025313;28;20045;-74
2021/06/29 04:33:21;;;;;;;0.00;0.00;;;20.20;82.90;19.70;101113.00;;;;5040524;28;20048;-74
2021/06/29 04:35:47;;;;;;;0.00;0.00;;;20.20;82.70;19.70;101113.00;;;;5020576;28;20132;-73
2021/06/29 04:38:13;;;;;;;0.00;0.00;;;20.30;83.00;19.70;101105.00;;;;5009050;28;20046;-74
2021/06/29 04:40:39;;;;;;;0.00;0.00;;;20.30;83.10;19.70;101112.00;;;;5024727;28;20653;-74
2021/06/29 04:43:05;;;;;;;0.00;0.00;;;20.30;82.80;19.70;101109.00;;;;5026530;28;20047;-75
2021/06/29 04:45:31;;;;;;;0.00;0.00;;;20.30;82.60;19.80;101101.00;;;;5022673;28;20045;-74
2021/06/29 04:47:57;;;;;;;0.00;0.00;;;20.30;82.70;19.80;101106.00;;;;5021758;28;20059;-74
2021/06/29 04:50:24;;;;;;;0.00;0.00;;;20.30;82.50;19.80;101095.00;;;;5036823;28;20045;-74
2021/06/29 04:52:51;;;;;;;0.00;0.00;;;20.30;82.30;19.80;101092.00;;;;5026530;28;20041;-75
2021/06/29 04:55:18;;;;;;;0.00;0.00;;;20.30;82.60;19.80;101094.00;;;;5025511;28;20135;-75
2021/06/29 04:57:45;;;;;;;0.10;0.00;;;20.30;83.20;19.80;101096.00;;;;5024594;28;20675;-73
2021/06/29 05:00:17;;;;;;;0.00;0.00;;;20.40;83.00;19.80;101087.00;;;;5023147;28;20052;-73
2021/06/29 05:02:44;;;;;;;0.10;0.10;;;20.40;83.30;19.80;101083.00;;;;5022931;28;20077;-73
2021/06/29 05:05:11;;;;;;;0.00;0.00;;;20.40;83.30;19.90;101090.00;;;;5026037;28;20041;-73
2021/06/29 05:07:40;;;;;;;0.05;0.05;;;20.40;83.20;19.90;101078.00;;;;5010980;28;20179;-73
2021/06/29 05:10:12;;;;;;;0.00;0.00;;;20.50;83.00;20.00;101079.00;;;;5040082;28;20172;-73
2021/06/29 05:12:39;;;;;;;0.00;0.00;;;20.50;83.40;20.00;101082.00;;;;5024204;28;20037;-73
2021/06/29 05:15:08;;;;;;;0.00;0.00;;;20.60;84.00;20.00;101088.00;;;;5022453;28;20052;-73
2021/06/29 05:17:35;;;;;;;0.00;0.00;;;20.50;83.90;20.10;101099.00;;;;5025342;28;20044;-73
2021/06/29 05:20:02;;;;;;;;;;;20.60;83.20;20.10;101103.00;;;;5021038;28;20041;-73
2021/06/29 05:22:28;;;;;;;0.00;0.00;;;20.60;84.30;20.10;101106.00;;;;5024125;28;19928;-73
2021/06/29 05:24:54;;;;;;;0.00;0.00;;;20.60;81.90;20.10;101111.00;;;;5022750;28;20034;-74
2021/06/29 05:27:20;;;;;;;0.00;0.00;;;20.70;83.10;20.10;101103.00;;;;5021089;28;20042;-73
2021/06/29 05:29:46;;;;;;;0.00;0.00;;;20.70;83.00;20.10;101108.00;;;;5007916;28;20042;-73
2021/06/29 05:32:12;;;;;;;0.00;0.00;;;20.70;82.70;20.10;101111.00;;;;5022870;28;20404;-73
2021/06/29 05:34:38;;;;;;;0.00;0.00;;;20.70;82.20;20.10;101107.00;;;;5024651;28;20116;-74
2021/06/29 05:37:04;;;;;;;0.00;0.00;;;20.70;82.60;20.10;101116.00;;;;5026465;28;20037;-74
2021/06/29 05:39:30;;;;;;;0.00;0.00;;;20.60;82.70;20.00;101123.00;;;;5023121;28;20415;-73
2021/06/29 05:41:56;;;;;;;0.00;0.00;;;20.20;82.70;20.00;101120.00;;;;5038064;28;20284;-74
2021/06/29 05:44:22;;;;;;;0.00;0.00;;;20.60;82.60;20.00;101119.00;;;;5024434;28;20164;-74
2021/06/29 05:46:48;;;;;;;0.00;0.00;;;20.60;83.60;20.00;101113.00;;;;5022591;28;20057;-75
2021/06/29 05:49:14;;;;;;;0.00;0.00;;;20.60;83.20;20.00;101110.00;;;;5008007;28;20729;-73
2021/06/29 05:51:47;;;;;;;0.00;0.00;;;20.60;82.90;20.00;101107.00;;;;5023174;28;20075;-73
2021/06/29 05:54:16;;;;;;;0.00;0.00;;;20.60;83.00;20.00;101112.00;;;;5024608;28;20042;-73
2021/06/29 05:56:43;;;;;;;0.00;0.00;;;20.50;83.00;19.90;101113.00;;;;5023935;28;20551;-74
2021/06/29 05:59:10;;;;;;;0.05;0.05;;;20.60;83.60;20.00;101119.00;;;;5025352;28;20033;-74
2021/06/29 06:01:36;;;;;;;0.00;0.00;;;20.50;82.70;19.90;101115.00;;;;5020468;28;20037;-73
2021/06/29 06:04:02;;;;;;;0.00;0.00;;;20.50;83.30;19.90;101114.00;;;;5021500;28;20041;-74
2021/06/29 06:06:28;;;;;;;0.55;0.20;;;20.50;82.80;19.90;101104.00;;;;5021722;28;20041;-74
2021/06/29 06:08:54;;;;;;;0.00;0.00;;;20.50;84.10;19.90;101106.00;;;;5021682;28;20056;-73
2021/06/29 06:11:20;;;;;;;0.00;0.00;;;20.50;84.10;19.90;101113.00;;;;5023077;28;20099;-74
2021/06/29 06:13:46;;;;;;;0.20;0.20;;;20.50;83.00;19.90;101113.00;;;;5019854;28;20041;-70
2021/06/29 06:16:13;;;;;;;0.00;0.00;;;20.50;83.70;19.90;101109.00;;;;5023747;28;20061;-74
2021/06/29 06:18:39;;;;;;;0.00;0.00;;;20.50;83.30;19.80;101117.00;;;;5017558;28;20626;-74
2021/06/29 06:21:06;;;;;;;0.00;0.00;;;20.40;83.40;19.80;101108.00;;;;5020433;28;20124;-74
2021/06/29 06:23:32;;;;;;;;;;;20.40;83.30;19.80;101116.00;;;;5019554;28;20409;-74
2021/06/29 06:25:58;;;;;;;0.03;0.03;;;20.40;84.80;19.80;101111.00;;;;5021392;28;19917;-74
2021/06/29 06:28:24;;;;;;;0.00;0.00;;;20.40;83.60;19.80;101113.00;;;;5018894;28;20405;-74
2021/06/29 06:30:50;;;;;;;0.07;0.07;;;20.40;83.10;19.80;101111.00;;;;5035964;28;20080;-73
2021/06/29 06:33:16;;;;;;;0.00;0.00;;;20.40;83.10;19.80;101106.00;;;;5022521;28;20496;-74
2021/06/29 06:35:41;;;;;;;0.00;0.00;;;20.40;84.40;19.80;101120.00;;;;5023763;28;20148;-74
2021/06/29 06:38:08;;;;;;;0.00;0.00;;;20.40;84.20;19.80;101116.00;;;;5019826;28;20053;-74
2021/06/29 06:40:33;;;;;;;0.08;0.08;;;20.40;83.60;19.80;101130.00;;;;5025960;28;20056;-74
2021/06/29 06:42:59;;;;;;;0.00;0.00;;;20.40;83.10;19.80;101127.00;;;;5023351;28;20041;-74
2021/06/29 06:45:26;;;;;;;0.00;0.00;;;20.40;83.80;19.90;101131.00;;;;5022748;28;20532;-74
2021/06/29 06:47:53;;;;;;;0.00;0.00;;;20.40;84.30;19.90;101135.00;;;;5022340;28;20125;-74
2021/06/29 06:50:20;;;;;;;0.00;0.00;;;20.50;82.60;19.90;101128.00;;;;5022616;28;20701;-74
2021/06/29 06:52:46;;;;;;;0.00;0.00;;;20.40;83.40;19.90;101120.00;;;;5023788;28;20038;-74
2021/06/29 06:55:12;;;;;;;0.00;0.00;;;20.50;83.60;19.90;101121.00;;;;5023274;28;20041;-73
2021/06/29 06:57:41;;;;;;;0.00;0.00;;;20.50;83.30;19.90;101122.00;;;;5025502;28;20291;-73
2021/06/29 07:00:09;;;;;;;0.00;0.00;;;20.50;84.00;20.00;101127.00;;;;5020901;28;20064;-73
2021/06/29 07:02:37;;;;;;;0.15;0.00;;;20.50;83.40;20.00;101118.00;;;;5026482;28;20424;-74
2021/06/29 07:05:05;;;;;;;0.10;0.10;;;20.50;83.90;20.00;101127.00;;;;5024358;28;20677;-73
2021/06/29 07:07:31;;;;;;;0.00;0.00;;;20.60;83.50;20.10;101120.00;;;;5021659;28;20051;-74
2021/06/29 07:09:57;;;;;;;0.00;0.00;;;20.60;83.40;20.10;101122.00;;;;5037550;28;20510;-74
2021/06/29 07:12:23;;;;;;;0.00;0.00;;;20.60;83.20;20.20;101127.00;;;;5022652;28;20491;-73
2021/06/29 07:14:50;;;;;;;0.00;0.00;;;20.70;83.70;20.20;101131.00;;;;5023965;28;20067;-74
2021/06/29 07:17:16;;;;;;;;;;;20.70;83.40;20.20;101123.00;;;;5022616;28;20045;-74
2021/06/29 07:19:42;;;;;;;0.00;0.00;;;20.70;83.80;20.20;101115.00;;;;5020490;28;19925;-74
2021/06/29 07:22:08;;;;;;;0.00;0.00;;;20.80;83.20;20.30;101122.00;;;;5022539;28;20108;-74
2021/06/29 07:24:34;;;;;;;0.20;0.20;;;20.80;81.90;20.30;101116.00;;;;5021856;28;20156;-73
2021/06/29 07:27:00;;;;;;;0.00;0.00;;;20.80;83.70;20.30;101128.00;;;;5006829;28;20034;-74
2021/06/29 07:29:26;;;;;;;0.00;0.00;;;20.90;83.70;20.30;101121.00;;;;5021700;28;20128;-73
2021/06/29 07:31:52;;;;;;;0.20;0.20;;;20.80;83.90;20.40;101121.00;;;;5019091;28;20403;-74
2021/06/29 07:34:18;;;;;;;0.10;0.10;;;20.90;83.70;20.40;101126.00;;;;5022071;28;20045;-73
2021/06/29 07:36:44;;;;;;;0.00;0.00;;;20.90;83.20;20.50;101125.00;;;;5023340;28;20120;-73
2021/06/29 07:39:10;;;;;;;0.10;0.10;;;20.90;83.30;20.50;101122.00;;;;5022041;28;20296;-74
2021/06/29 07:41:36;;;;;;;0.30;0.30;;;21.00;83.10;20.60;101129.00;;;;5020279;28;20088;-74
2021/06/29 07:44:02;;;;;;;0.10;0.10;;;21.00;82.50;20.60;101123.00;;;;5022452;28;20051;-73
2021/06/29 07:46:28;;;;;;;0.00;0.00;;;21.10;82.50;20.70;101126.00;;;;5021391;28;20033;-75
2021/06/29 07:48:54;;;;;;;0.83;0.20;;;21.10;82.30;20.80;101134.00;;;;5039910;28;20203;-73
2021/06/29 07:51:20;;;;;;;0.10;0.10;;;21.30;84.10;20.90;101118.00;;;;5024835;28;20400;-73
2021/06/29 07:53:47;;;;;;;0.05;0.03;;;21.30;83.10;21.00;101124.00;;;;5018666;28;20692;-73
2021/06/29 07:56:14;;;;;;;0.00;0.00;;;21.40;81.70;21.10;101125.00;;;;5029891;28;20037;-73
2021/06/29 07:58:45;;;;;;;0.10;0.10;;;21.50;81.90;21.10;101121.00;;;;5020859;28;20111;-73
2021/06/29 08:01:18;;;;;;;0.00;0.00;;;21.50;82.20;21.20;101118.00;;;;4987643;28;20084;-73
2021/06/29 08:03:45;;;;;;;0.45;0.45;;;21.60;80.80;21.20;101120.00;;;;5023594;28;20518;-73
2021/06/29 08:06:11;;;;;;;;;;;21.70;80.90;21.30;101124.00;;;;5025386;28;20046;-73
2021/06/29 08:08:37;;;;;;;0.00;0.00;;;21.80;79.90;21.30;101124.00;;;;5030294;28;19932;-73
2021/06/29 08:11:08;;;;;;;0.00;0.00;;;21.70;80.80;21.40;101121.00;;;;5025339;28;20054;-74
2021/06/29 08:13:35;;;;;;;0.22;0.17;;;21.90;80.10;21.40;101118.00;;;;5028491;28;20037;-74
2021/06/29 08:16:02;;;;;;;0.00;0.00;;;21.90;80.70;21.40;101120.00;;;;5041395;28;20546;-74
2021/06/29 08:18:28;;;;;;;0.10;0.10;;;21.90;79.60;21.50;101107.00;;;;5025811;28;20073;-74
2021/06/29 08:20:57;;;;;;;0.00;0.00;;;21.90;80.20;21.50;101105.00;;;;5027725;28;20504;-74
2021/06/29 08:23:24;;;;;;;0.10;0.00;;;22.00;79.00;21.50;101107.00;;;;5028536;28;20408;-73
2021/06/29 08:25:51;;;;;;;0.22;0.20;;;22.00;79.80;21.50;101107.00;;;;5026434;28;20081;-73
2021/06/29 08:28:17;;;;;;;0.22;0.22;;;22.00;79.70;21.60;101103.00;;;;5023241;28;20037;-72
2021/06/29 08:30:45;;;;;;;0.03;0.03;;;22.00;78.90;21.60;101116.00;;;;5025202;28;20504;-73
2021/06/29 08:33:11;;;;;;;0.30;0.30;;;22.10;79.60;21.70;101113.00;;;;5020223;28;20049;-73
2021/06/29 08:35:42;;;;;;;;;;;22.20;78.20;21.80;101113.00;;;;5027214;28;20049;-72
2021/06/29 08:38:08;;;;;;;0.08;0.08;;;22.20;79.90;21.80;101111.00;;;;5026754;28;19928;-73
2021/06/29 08:40:37;;;;;;;0.05;0.05;;;22.20;79.30;21.90;101119.00;;;;5024974;28;20038;-73
2021/06/29 08:43:05;;;;;;;0.00;0.00;;;22.30;78.90;22.00;101116.00;;;;5027528;28;20052;-74
2021/06/29 08:45:32;;;;;;;0.00;0.00;;;22.40;79.00;22.10;101117.00;;;;5023608;28;20072;-73
2021/06/29 08:48:00;;;;;;;0.10;0.10;;;22.50;78.70;22.20;101120.00;;;;5026360;28;20120;-73
2021/06/29 08:50:30;;;;;;;0.47;0.30;;;22.60;78.20;22.30;101109.00;;;;5042349;28;20053;-73
2021/06/29 08:53:04;;;;;;;0.75;0.50;;;22.30;77.80;22.20;101117.00;;;;5025929;28;20523;-73
2021/06/29 08:55:43;;;;;;;0.00;0.00;;;22.60;77.90;22.30;101117.00;;;;5026310;28;20056;-73
2021/06/29 08:58:10;;;;;;;2.38;0.57;;;22.70;77.60;22.20;101112.00;;;;5026573;28;20048;-73
2021/06/29 09:00:37;;;;;;;;;;;22.70;77.50;22.30;101117.00;;;;5025506;28;20176;-73
2021/06/29 09:03:05;;;;;;;0.88;0.63;;;22.70;77.50;22.40;101123.00;;;;5021138;28;19925;-73
2021/06/29 09:05:31;;;;;;;0.15;0.15;;;22.80;77.40;22.70;101132.00;;;;5024305;28;20033;-73
2021/06/29 09:08:06;;;;;;;0.10;0.10;;;23.00;77.50;23.00;101123.00;;;;5024240;28;20493;-73
2021/06/29 09:10:35;;;;;;;0.10;0.10;;;23.20;77.20;23.10;101130.00;;;;5024751;28;20049;-74
2021/06/29 09:13:02;;;;;;;0.20;0.20;;;23.40;76.90;23.20;101133.00;;;;5023167;28;20067;-73
2021/06/29 09:15:36;;;;;;;;;;;23.50;76.20;22.90;101130.00;;;;5023279;28;20531;-73
2021/06/29 09:18:04;;;;;;;0.35;0.30;;;23.30;76.00;22.80;101137.00;;;;5019331;28;19925;-73
2021/06/29 09:20:44;;;;;;;2.33;1.23;;;23.30;76.30;22.90;101123.00;;;;5023326;28;20504;-73
2021/06/29 09:23:19;;;;;;;0.60;0.35;;;23.30;75.10;23.00;101114.00;;;;5025235;28;20117;-73
2021/06/29 09:25:51;;;;;;;1.30;0.85;;;23.30;76.40;22.90;101112.00;;;;5038795;28;20046;-72
2021/06/29 09:28:27;;;;;;;0.30;0.30;;;23.30;75.80;23.00;101119.00;;;;5021530;28;20053;-73
2021/06/29 09:31:11;;;;;;;1.52;1.42;;;23.40;76.30;23.00;101120.00;;;;5021037;28;20045;-73
2021/06/29 09:34:00;;;;;;;1.08;1.05;;;23.40;75.30;22.80;101125.00;;;;5021936;28;20056;-73
2021/06/29 09:36:32;;;;;;;2.95;1.70;;;23.30;75.80;22.60;101132.00;;;;5020849;28;20420;-73
2021/06/29 09:39:17;;;;;;;0.63;0.60;;;23.20;76.00;22.60;101121.00;;;;5021060;28;21133;-72
2021/06/29 09:41:47;;;;;;;4.90;1.23;;;23.10;75.40;22.50;101123.00;;;;5021532;28;20060;-73
2021/06/29 09:44:18;;;;;;;0.30;0.30;;;23.10;76.20;22.50;101132.00;;;;5027704;28;20041;-73
2021/06/29 09:46:45;;;;;;;1.95;1.65;;;23.00;76.30;22.30;101133.00;;;;5003632;28;20084;-73
2021/06/29 09:49:17;;;;;;;0.65;0.65;;;22.80;75.00;22.20;101130.00;;;;5026062;28;20068;-73
2021/06/29 09:51:50;;;;;;;0.93;0.75;;;22.80;76.00;22.10;101131.00;;;;5022348;28;20046;-72
2021/06/29 09:54:17;;;;;;;2.03;0.70;;;22.70;76.10;22.30;101122.00;;;;5024089;28;20045;-73
2021/06/29 09:56:46;;;;;;;;;;;22.70;76.10;22.50;101131.00;;;;5025183;28;20211;-74
2021/06/29 09:59:19;;;;;;;0.20;0.20;;;22.80;75.00;22.70;101129.00;;;;5022316;28;19933;-71
2021/06/29 10:01:45;;;;;;;1.63;0.82;;;23.00;75.00;22.60;101127.00;;;;5022796;28;20164;-70
2021/06/29 10:04:11;;;;;;;0.65;0.65;;;23.00;74.00;22.90;101135.00;;;;5020785;28;20075;-73
2021/06/29 10:06:39;;;;;;;0.10;0.10;;;23.30;73.30;23.20;101131.00;;;;5021213;28;20551;-74
2021/06/29 10:09:11;;;;;;;0.40;0.40;;;23.40;75.10;23.40;101144.00;;;;5025199;28;20095;-73
2021/06/29 10:11:42;;;;;;;0.43;0.17;;;23.60;74.70;23.40;101134.00;;;;5025359;28;20072;-73
2021/06/29 10:14:14;;;;;;;0.40;0.40;;;23.70;73.40;23.60;101136.00;;;;5023250;28;20061;-72
2021/06/29 10:16:46;;;;;;;0.40;0.40;;;23.90;73.90;23.90;101137.00;;;;5023283;28;20260;-73
2021/06/29 10:19:37;;;;;;;0.10;0.10;;;24.10;72.80;24.00;101139.00;;;;5024363;28;20049;-73
2021/06/29 10:22:05;;;;;;;0.40;0.40;;;24.50;71.80;24.30;101139.00;;;;5021467;28;20053;-73
2021/06/29 10:24:36;;;;;;;0.20;0.20;;;24.50;71.10;24.50;101145.00;;;;5024521;28;20091;-71
2021/06/29 10:27:06;;;;;;;0.50;0.30;;;24.70;71.40;24.70;101151.00;;;;5006258;28;20054;-73
2021/06/29 10:29:34;;;;;;;0.00;0.00;;;24.90;70.20;24.70;101153.00;;;;5024577;28;20073;-73
2021/06/29 10:32:09;;;;;;;0.10;0.10;;;25.00;70.50;24.60;101150.00;;;;5022850;28;20053;-73
2021/06/29 10:34:37;;;;;;;0.00;0.00;;;24.90;70.40;24.60;101142.00;;;;5020868;28;20540;-72
2021/06/29 10:37:05;;;;;;;0.60;0.40;;;24.90;69.80;24.60;101135.00;;;;5023160;28;20049;-73
2021/06/29 10:39:34;;;;;;;0.70;0.57;;;24.90;68.70;24.60;101140.00;;;;5021731;28;20041;-73
2021/06/29 10:42:11;;;;;;;0.00;0.00;;;25.00;72.00;24.60;101137.00;;;;5021580;28;20061;-73
2021/06/29 10:44:45;;;;;;;0.10;0.10;;;24.90;67.20;24.60;101143.00;;;;5022149;28;20038;-73
2021/06/29 10:47:29;;;;;;;0.15;0.15;;;24.90;69.50;24.80;101143.00;;;;5026378;28;20060;-72
2021/06/29 10:49:58;;;;;;;0.30;0.10;;;25.10;70.80;24.90;101131.00;;;;5014954;28;20044;-73
2021/06/29 10:52:27;;;;;;;0.10;0.10;;;25.20;69.90;24.80;101129.00;;;;5023992;28;20157;-72
2021/06/29 10:54:57;;;;;;;1.23;0.47;;;25.20;68.70;25.00;101127.00;;;;5022686;28;20049;-73